Yardley, Pennsylvania
Current Conditions -  °F | °C
As of 8:34 PM on Friday 19 Dec 2014 (Local Time) from KTTN Reporting Station
Broken Clouds Broken Clouds  
Wind Chill: 23°   Ceiling: 2900
Heat Index: 31°   Visibility: 10mi
Dew Point: 19°   Wind: 9mph
Humidity: 61%   Direction: 350°N
Pressure: 30.16"   Gusts: NA
Location:  40.1994°N, 74.8145°W
Report Text: KTTN 200134Z 35008KT 10SM BKN029 M01/M07 A3016 RMK AO2 T10061072
Loading
Personal Weather Stations






























Interactive Weather Map New forecast layout! Learn more

10-Day Weather Forecast

Advertisements
Track Severe Weather on mobile